sensor_id;sensor_type;location;lat;lon;timestamp;temperature;humidity
23329;DHT22;11836;51.050;3.716;2023-06-01T00:01:37;24.10;93.90
23329;DHT22;11836;51.050;3.716;2023-06-01T00:04:12;24.00;93.50
23329;DHT22;11836;51.050;3.716;2023-06-01T00:06:39;24.10;93.60
23329;DHT22;11836;51.050;3.716;2023-06-01T00:09:06;24.00;93.70
23329;DHT22;11836;51.050;3.716;2023-06-01T00:11:32;24.00;93.60
23329;DHT22;11836;51.050;3.716;2023-06-01T00:13:58;24.00;93.40
23329;DHT22;11836;51.050;3.716;2023-06-01T00:16:24;24.00;93.40
23329;DHT22;11836;51.050;3.716;2023-06-01T00:18:49;24.00;93.50
23329;DHT22;11836;51.050;3.716;2023-06-01T00:21:19;23.90;93.40
23329;DHT22;11836;51.050;3.716;2023-06-01T00:23:45;24.00;93.40
23329;DHT22;11836;51.050;3.716;2023-06-01T00:26:11;23.90;93.50
23329;DHT22;11836;51.050;3.716;2023-06-01T00:28:37;23.90;93.50
23329;DHT22;11836;51.050;3.716;2023-06-01T00:31:04;23.90;93.50
23329;DHT22;11836;51.050;3.716;2023-06-01T00:33:31;23.90;93.60
23329;DHT22;11836;51.050;3.716;2023-06-01T00:35:56;23.80;93.60
23329;DHT22;11836;51.050;3.716;2023-06-01T00:38:22;23.90;93.60
23329;DHT22;11836;51.050;3.716;2023-06-01T00:40:48;23.90;93.60
23329;DHT22;11836;51.050;3.716;2023-06-01T00:43:27;23.90;93.70
23329;DHT22;11836;51.050;3.716;2023-06-01T00:45:55;23.80;93.60
23329;DHT22;11836;51.050;3.716;2023-06-01T00:48:21;23.80;93.80
23329;DHT22;11836;51.050;3.716;2023-06-01T00:50:49;23.80;93.60
23329;DHT22;11836;51.050;3.716;2023-06-01T00:53:17;23.80;93.50
23329;DHT22;11836;51.050;3.716;2023-06-01T00:55:44;23.80;93.60
23329;DHT22;11836;51.050;3.716;2023-06-01T00:58:14;23.80;93.60
23329;DHT22;11836;51.050;3.716;2023-06-01T01:00:42;23.80;93.70
23329;DHT22;11836;51.050;3.716;2023-06-01T01:03:08;23.80;93.70
23329;DHT22;11836;51.050;3.716;2023-06-01T01:05:37;23.70;93.80
23329;DHT22;11836;51.050;3.716;2023-06-01T01:08:13;23.70;93.80
23329;DHT22;11836;51.050;3.716;2023-06-01T01:13:55;23.70;93.70
23329;DHT22;11836;51.050;3.716;2023-06-01T01:16:35;23.70;93.80
23329;DHT22;11836;51.050;3.716;2023-06-01T01:22:12;23.70;93.80
23329;DHT22;11836;51.050;3.716;2023-06-01T01:30:21;23.60;93.80
23329;DHT22;11836;51.050;3.716;2023-06-01T01:32:49;23.60;93.80
23329;DHT22;11836;51.050;3.716;2023-06-01T01:35:16;23.60;93.80
23329;DHT22;11836;51.050;3.716;2023-06-01T01:37:53;23.60;93.80
23329;DHT22;11836;51.050;3.716;2023-06-01T01:40:19;23.60;93.90
23329;DHT22;11836;51.050;3.716;2023-06-01T01:42:45;23.60;93.90
23329;DHT22;11836;51.050;3.716;2023-06-01T01:45:12;23.60;93.90
23329;DHT22;11836;51.050;3.716;2023-06-01T01:47:47;23.60;93.90
23329;DHT22;11836;51.050;3.716;2023-06-01T01:50:16;23.60;93.80
23329;DHT22;11836;51.050;3.716;2023-06-01T01:52:44;23.60;93.70
23329;DHT22;11836;51.050;3.716;2023-06-01T01:55:15;23.60;93.90
23329;DHT22;11836;51.050;3.716;2023-06-01T01:57:50;23.50;93.80
23329;DHT22;11836;51.050;3.716;2023-06-01T02:00:17;23.50;93.80
23329;DHT22;11836;51.050;3.716;2023-06-01T02:02:45;23.50;93.70
23329;DHT22;11836;51.050;3.716;2023-06-01T02:05:11;23.50;93.70
23329;DHT22;11836;51.050;3.716;2023-06-01T02:07:37;23.50;93.60
23329;DHT22;11836;51.050;3.716;2023-06-01T02:10:03;23.50;93.60
23329;DHT22;11836;51.050;3.716;2023-06-01T02:12:30;23.40;93.60
23329;DHT22;11836;51.050;3.716;2023-06-01T02:14:56;23.40;93.60
23329;DHT22;11836;51.050;3.716;2023-06-01T02:17:22;23.40;93.70
23329;DHT22;11836;51.050;3.716;2023-06-01T02:19:50;23.40;93.60
23329;DHT22;11836;51.050;3.716;2023-06-01T02:22:16;23.40;93.60
23329;DHT22;11836;51.050;3.716;2023-06-01T02:24:41;23.30;93.70
23329;DHT22;11836;51.050;3.716;2023-06-01T02:27:07;23.40;93.80
23329;DHT22;11836;51.050;3.716;2023-06-01T02:29:33;23.30;94.20
23329;DHT22;11836;51.050;3.716;2023-06-01T02:31:59;23.30;93.90
23329;DHT22;11836;51.050;3.716;2023-06-01T02:34:24;23.30;93.90
23329;DHT22;11836;51.050;3.716;2023-06-01T02:36:50;23.30;93.90
23329;DHT22;11836;51.050;3.716;2023-06-01T02:39:16;23.40;93.80
23329;DHT22;11836;51.050;3.716;2023-06-01T02:41:42;23.30;94.20
23329;DHT22;11836;51.050;3.716;2023-06-01T02:44:08;23.30;93.90
23329;DHT22;11836;51.050;3.716;2023-06-01T02:46:35;23.20;93.90
23329;DHT22;11836;51.050;3.716;2023-06-01T02:49:03;23.30;93.90
23329;DHT22;11836;51.050;3.716;2023-06-01T02:51:29;23.30;93.90
23329;DHT22;11836;51.050;3.716;2023-06-01T02:53:56;23.30;93.70
23329;DHT22;11836;51.050;3.716;2023-06-01T02:56:22;23.20;93.60
23329;DHT22;11836;51.050;3.716;2023-06-01T02:58:48;23.20;93.70
23329;DHT22;11836;51.050;3.716;2023-06-01T03:01:14;23.20;93.60
23329;DHT22;11836;51.050;3.716;2023-06-01T03:03:39;23.20;93.50
23329;DHT22;11836;51.050;3.716;2023-06-01T03:06:21;23.20;93.60
23329;DHT22;11836;51.050;3.716;2023-06-01T03:08:47;23.10;93.70
23329;DHT22;11836;51.050;3.716;2023-06-01T03:11:13;23.10;93.80
23329;DHT22;11836;51.050;3.716;2023-06-01T03:13:46;23.10;93.60
23329;DHT22;11836;51.050;3.716;2023-06-01T03:16:12;23.10;93.30
23329;DHT22;11836;51.050;3.716;2023-06-01T03:18:43;23.10;93.50
23329;DHT22;11836;51.050;3.716;2023-06-01T03:21:08;23.00;93.50
23329;DHT22;11836;51.050;3.716;2023-06-01T03:23:34;23.00;93.60
23329;DHT22;11836;51.050;3.716;2023-06-01T03:26:00;23.00;93.60
23329;DHT22;11836;51.050;3.716;2023-06-01T03:28:25;23.00;93.60
23329;DHT22;11836;51.050;3.716;2023-06-01T03:30:52;23.00;93.70
23329;DHT22;11836;51.050;3.716;2023-06-01T03:33:20;23.00;93.80
23329;DHT22;11836;51.050;3.716;2023-06-01T03:35:45;23.00;93.70
23329;DHT22;11836;51.050;3.716;2023-06-01T03:38:11;23.00;93.70
23329;DHT22;11836;51.050;3.716;2023-06-01T03:40:39;23.00;93.80
23329;DHT22;11836;51.050;3.716;2023-06-01T03:43:05;23.00;93.80
23329;DHT22;11836;51.050;3.716;2023-06-01T03:45:31;23.00;93.80
23329;DHT22;11836;51.050;3.716;2023-06-01T03:47:59;23.10;93.80
23329;DHT22;11836;51.050;3.716;2023-06-01T03:50:25;23.00;93.70
23329;DHT22;11836;51.050;3.716;2023-06-01T03:52:51;23.00;93.80
23329;DHT22;11836;51.050;3.716;2023-06-01T03:55:17;23.00;93.80
23329;DHT22;11836;51.050;3.716;2023-06-01T03:57:45;22.90;93.70
23329;DHT22;11836;51.050;3.716;2023-06-01T04:00:11;23.00;93.90
23329;DHT22;11836;51.050;3.716;2023-06-01T04:02:55;22.90;93.70
23329;DHT22;11836;51.050;3.716;2023-06-01T04:05:21;22.90;93.60
23329;DHT22;11836;51.050;3.716;2023-06-01T04:07:48;22.90;93.80
23329;DHT22;11836;51.050;3.716;2023-06-01T04:10:15;22.90;93.80
23329;DHT22;11836;51.050;3.716;2023-06-01T04:12:43;22.90;93.80
23329;DHT22;11836;51.050;3.716;2023-06-01T04:15:14;22.90;93.80
23329;DHT22;11836;51.050;3.716;2023-06-01T04:17:42;22.90;93.60
23329;DHT22;11836;51.050;3.716;2023-06-01T04:20:12;22.90;93.60
23329;DHT22;11836;51.050;3.716;2023-06-01T04:22:39;22.90;94.00
23329;DHT22;11836;51.050;3.716;2023-06-01T04:25:08;23.00;93.70
23329;DHT22;11836;51.050;3.716;2023-06-01T04:27:34;22.90;93.70
23329;DHT22;11836;51.050;3.716;2023-06-01T04:30:07;22.90;93.50
23329;DHT22;11836;51.050;3.716;2023-06-01T04:32:34;22.90;93.30
23329;DHT22;11836;51.050;3.716;2023-06-01T04:35:05;22.90;93.40
23329;DHT22;11836;51.050;3.716;2023-06-01T04:37:36;22.80;93.60
23329;DHT22;11836;51.050;3.716;2023-06-01T04:40:09;22.80;93.70
23329;DHT22;11836;51.050;3.716;2023-06-01T04:42:35;22.90;93.90
23329;DHT22;11836;51.050;3.716;2023-06-01T04:45:07;22.80;94.00
23329;DHT22;11836;51.050;3.716;2023-06-01T04:47:45;22.80;93.80
23329;DHT22;11836;51.050;3.716;2023-06-01T04:50:12;22.80;93.90
23329;DHT22;11836;51.050;3.716;2023-06-01T04:52:41;22.80;92.60
23329;DHT22;11836;51.050;3.716;2023-06-01T04:55:08;22.60;91.50
23329;DHT22;11836;51.050;3.716;2023-06-01T04:57:34;22.10;91.80
23329;DHT22;11836;51.050;3.716;2023-06-01T05:00:05;21.60;92.30
23329;DHT22;11836;51.050;3.716;2023-06-01T05:05:30;20.80;92.70
23329;DHT22;11836;51.050;3.716;2023-06-01T05:07:55;20.20;93.20
23329;DHT22;11836;51.050;3.716;2023-06-01T05:10:21;19.60;94.00
23329;DHT22;11836;51.050;3.716;2023-06-01T05:12:47;18.90;95.10
23329;DHT22;11836;51.050;3.716;2023-06-01T05:15:14;18.60;96.10
23329;DHT22;11836;51.050;3.716;2023-06-01T05:17:43;18.40;97.10
23329;DHT22;11836;51.050;3.716;2023-06-01T05:20:09;18.40;98.40
23329;DHT22;11836;51.050;3.716;2023-06-01T05:22:37;18.50;98.70
23329;DHT22;11836;51.050;3.716;2023-06-01T05:25:03;18.90;98.80
23329;DHT22;11836;51.050;3.716;2023-06-01T05:27:34;19.20;98.60
23329;DHT22;11836;51.050;3.716;2023-06-01T05:29:59;19.50;98.30
23329;DHT22;11836;51.050;3.716;2023-06-01T05:32:30;19.80;98.00
23329;DHT22;11836;51.050;3.716;2023-06-01T05:34:57;20.10;97.70
23329;DHT22;11836;51.050;3.716;2023-06-01T05:37:22;20.30;97.40
23329;DHT22;11836;51.050;3.716;2023-06-01T05:39:49;20.60;97.20
23329;DHT22;11836;51.050;3.716;2023-06-01T05:42:16;20.80;96.80
23329;DHT22;11836;51.050;3.716;2023-06-01T05:44:41;21.10;96.40
23329;DHT22;11836;51.050;3.716;2023-06-01T05:47:08;21.30;96.10
23329;DHT22;11836;51.050;3.716;2023-06-01T05:49:35;21.50;95.80
23329;DHT22;11836;51.050;3.716;2023-06-01T05:52:04;21.60;95.60
23329;DHT22;11836;51.050;3.716;2023-06-01T05:54:31;21.90;95.30
23329;DHT22;11836;51.050;3.716;2023-06-01T05:56:57;22.00;94.90
23329;DHT22;11836;51.050;3.716;2023-06-01T05:59:23;22.10;94.80
23329;DHT22;11836;51.050;3.716;2023-06-01T06:01:49;22.20;94.80
23329;DHT22;11836;51.050;3.716;2023-06-01T06:04:14;22.40;94.70
23329;DHT22;11836;51.050;3.716;2023-06-01T06:06:40;22.50;94.50
23329;DHT22;11836;51.050;3.716;2023-06-01T06:09:06;22.60;94.20
23329;DHT22;11836;51.050;3.716;2023-06-01T06:11:32;22.70;94.10
23329;DHT22;11836;51.050;3.716;2023-06-01T06:14:01;22.90;94.10
23329;DHT22;11836;51.050;3.716;2023-06-01T06:16:28;23.10;94.00
23329;DHT22;11836;51.050;3.716;2023-06-01T06:18:55;23.30;93.50
23329;DHT22;11836;51.050;3.716;2023-06-01T06:21:23;23.40;93.10
23329;DHT22;11836;51.050;3.716;2023-06-01T06:23:49;23.60;92.60
23329;DHT22;11836;51.050;3.716;2023-06-01T06:26:21;23.90;92.40
23329;DHT22;11836;51.050;3.716;2023-06-01T06:28:48;24.50;92.00
23329;DHT22;11836;51.050;3.716;2023-06-01T06:31:14;25.20;91.20
23329;DHT22;11836;51.050;3.716;2023-06-01T06:33:39;25.90;90.10
23329;DHT22;11836;51.050;3.716;2023-06-01T06:36:05;26.60;88.70
23329;DHT22;11836;51.050;3.716;2023-06-01T06:38:31;27.30;86.40
23329;DHT22;11836;51.050;3.716;2023-06-01T06:40:58;28.00;85.10
23329;DHT22;11836;51.050;3.716;2023-06-01T06:43:24;28.60;83.90
23329;DHT22;11836;51.050;3.716;2023-06-01T06:45:50;29.00;83.20
23329;DHT22;11836;51.050;3.716;2023-06-01T06:48:21;29.30;82.10
23329;DHT22;11836;51.050;3.716;2023-06-01T06:50:47;29.70;81.40
23329;DHT22;11836;51.050;3.716;2023-06-01T06:53:18;29.90;81.00
23329;DHT22;11836;51.050;3.716;2023-06-01T06:55:46;30.00;80.50
23329;DHT22;11836;51.050;3.716;2023-06-01T06:58:12;30.20;79.90
23329;DHT22;11836;51.050;3.716;2023-06-01T07:00:40;30.30;80.70
23329;DHT22;11836;51.050;3.716;2023-06-01T07:03:09;30.30;72.40
23329;DHT22;11836;51.050;3.716;2023-06-01T07:05:35;30.50;70.30
23329;DHT22;11836;51.050;3.716;2023-06-01T07:08:01;30.80;69.10
23329;DHT22;11836;51.050;3.716;2023-06-01T07:10:27;31.00;68.40
23329;DHT22;11836;51.050;3.716;2023-06-01T07:12:54;31.10;68.30
23329;DHT22;11836;51.050;3.716;2023-06-01T07:15:21;31.20;68.00
23329;DHT22;11836;51.050;3.716;2023-06-01T07:17:48;31.20;67.40
23329;DHT22;11836;51.050;3.716;2023-06-01T07:20:14;31.00;67.10
23329;DHT22;11836;51.050;3.716;2023-06-01T07:22:46;30.70;68.00
23329;DHT22;11836;51.050;3.716;2023-06-01T07:25:13;30.20;68.30
23329;DHT22;11836;51.050;3.716;2023-06-01T07:27:41;29.50;69.10
23329;DHT22;11836;51.050;3.716;2023-06-01T07:30:09;28.80;70.90
23329;DHT22;11836;51.050;3.716;2023-06-01T07:32:38;28.40;72.00
23329;DHT22;11836;51.050;3.716;2023-06-01T07:35:04;27.90;72.70
23329;DHT22;11836;51.050;3.716;2023-06-01T07:37:33;27.30;73.50
23329;DHT22;11836;51.050;3.716;2023-06-01T07:40:00;26.80;74.60
23329;DHT22;11836;51.050;3.716;2023-06-01T07:42:26;26.20;76.10
23329;DHT22;11836;51.050;3.716;2023-06-01T07:44:53;25.40;77.50
23329;DHT22;11836;51.050;3.716;2023-06-01T07:47:19;25.00;79.00
23329;DHT22;11836;51.050;3.716;2023-06-01T07:49:45;25.10;79.60
23329;DHT22;11836;51.050;3.716;2023-06-01T07:52:12;25.20;79.30
23329;DHT22;11836;51.050;3.716;2023-06-01T07:54:42;24.70;79.90
23329;DHT22;11836;51.050;3.716;2023-06-01T07:57:09;24.50;80.90
23329;DHT22;11836;51.050;3.716;2023-06-01T07:59:45;24.50;81.50
23329;DHT22;11836;51.050;3.716;2023-06-01T08:02:11;24.20;81.60
23329;DHT22;11836;51.050;3.716;2023-06-01T08:04:39;24.20;82.20
23329;DHT22;11836;51.050;3.716;2023-06-01T08:07:04;24.00;82.90
23329;DHT22;11836;51.050;3.716;2023-06-01T08:09:33;24.10;82.60
23329;DHT22;11836;51.050;3.716;2023-06-01T08:12:00;24.20;83.20
23329;DHT22;11836;51.050;3.716;2023-06-01T08:14:26;23.80;82.70
23329;DHT22;11836;51.050;3.716;2023-06-01T08:16:52;23.70;83.40
23329;DHT22;11836;51.050;3.716;2023-06-01T08:19:18;23.70;83.50
23329;DHT22;11836;51.050;3.716;2023-06-01T08:21:44;23.70;83.50
23329;DHT22;11836;51.050;3.716;2023-06-01T08:24:11;23.80;83.20
23329;DHT22;11836;51.050;3.716;2023-06-01T08:26:38;23.60;83.30
23329;DHT22;11836;51.050;3.716;2023-06-01T08:29:03;23.40;83.50
23329;DHT22;11836;51.050;3.716;2023-06-01T08:31:35;23.30;83.40
23329;DHT22;11836;51.050;3.716;2023-06-01T08:34:02;23.40;83.50
23329;DHT22;11836;51.050;3.716;2023-06-01T08:36:28;23.60;82.90
23329;DHT22;11836;51.050;3.716;2023-06-01T08:38:54;23.70;83.30
23329;DHT22;11836;51.050;3.716;2023-06-01T08:44:02;24.10;81.40
23329;DHT22;11836;51.050;3.716;2023-06-01T08:46:31;24.30;80.90
23329;DHT22;11836;51.050;3.716;2023-06-01T08:48:58;24.40;80.40
23329;DHT22;11836;51.050;3.716;2023-06-01T08:51:25;24.50;80.70
23329;DHT22;11836;51.050;3.716;2023-06-01T08:56:43;24.70;81.10
23329;DHT22;11836;51.050;3.716;2023-06-01T09:02:30;24.70;79.50
23329;DHT22;11836;51.050;3.716;2023-06-01T09:04:56;24.60;80.50
23329;DHT22;11836;51.050;3.716;2023-06-01T09:07:22;24.30;82.80
23329;DHT22;11836;51.050;3.716;2023-06-01T09:09:55;24.20;86.20
23329;DHT22;11836;51.050;3.716;2023-06-01T09:12:24;24.40;87.60
23329;DHT22;11836;51.050;3.716;2023-06-01T09:17:29;24.80;87.30
23329;DHT22;11836;51.050;3.716;2023-06-01T09:20:27;25.10;87.20
23329;DHT22;11836;51.050;3.716;2023-06-01T09:22:56;25.30;86.90
23329;DHT22;11836;51.050;3.716;2023-06-01T09:25:26;25.40;86.70
23329;DHT22;11836;51.050;3.716;2023-06-01T09:27:57;25.60;86.70
23329;DHT22;11836;51.050;3.716;2023-06-01T09:30:41;25.70;86.50
23329;DHT22;11836;51.050;3.716;2023-06-01T09:33:18;25.80;86.40
23329;DHT22;11836;51.050;3.716;2023-06-01T09:36:07;25.90;86.40
23329;DHT22;11836;51.050;3.716;2023-06-01T09:39:02;26.00;86.40
23329;DHT22;11836;51.050;3.716;2023-06-01T09:44:51;25.50;76.90
23329;DHT22;11836;51.050;3.716;2023-06-01T09:47:17;25.10;77.70
23329;DHT22;11836;51.050;3.716;2023-06-01T09:49:47;24.80;79.30
23329;DHT22;11836;51.050;3.716;2023-06-01T09:52:16;24.60;82.20
23329;DHT22;11836;51.050;3.716;2023-06-01T09:54:49;24.50;80.30
23329;DHT22;11836;51.050;3.716;2023-06-01T09:57:28;24.50;79.60
23329;DHT22;11836;51.050;3.716;2023-06-01T09:59:56;24.10;80.00
23329;DHT22;11836;51.050;3.716;2023-06-01T10:02:24;23.70;81.30
23329;DHT22;11836;51.050;3.716;2023-06-01T10:07:48;23.80;88.10
23329;DHT22;11836;51.050;3.716;2023-06-01T10:10:15;24.10;89.20
23329;DHT22;11836;51.050;3.716;2023-06-01T10:12:44;24.40;89.30
23329;DHT22;11836;51.050;3.716;2023-06-01T10:15:10;24.60;89.20
23329;DHT22;11836;51.050;3.716;2023-06-01T10:17:37;24.70;88.20
23329;DHT22;11836;51.050;3.716;2023-06-01T10:20:09;24.90;80.50
23329;DHT22;11836;51.050;3.716;2023-06-01T10:22:40;24.70;81.20
23329;DHT22;11836;51.050;3.716;2023-06-01T10:25:10;24.60;81.60
23329;DHT22;11836;51.050;3.716;2023-06-01T10:28:00;24.60;82.90
23329;DHT22;11836;51.050;3.716;2023-06-01T10:30:29;24.60;82.00
23329;DHT22;11836;51.050;3.716;2023-06-01T10:32:55;24.50;83.10
23329;DHT22;11836;51.050;3.716;2023-06-01T10:40:45;24.30;83.80
23329;DHT22;11836;51.050;3.716;2023-06-01T10:43:39;24.30;84.30
23329;DHT22;11836;51.050;3.716;2023-06-01T10:46:34;24.30;83.50
23329;DHT22;11836;51.050;3.716;2023-06-01T10:49:01;24.10;83.50
23329;DHT22;11836;51.050;3.716;2023-06-01T10:51:27;24.00;84.50
23329;DHT22;11836;51.050;3.716;2023-06-01T10:53:54;24.00;83.80
23329;DHT22;11836;51.050;3.716;2023-06-01T10:56:21;24.00;83.80
23329;DHT22;11836;51.050;3.716;2023-06-01T11:01:49;24.00;83.40
23329;DHT22;11836;51.050;3.716;2023-06-01T11:04:36;24.00;83.40
23329;DHT22;11836;51.050;3.716;2023-06-01T11:10:59;23.90;83.80
23329;DHT22;11836;51.050;3.716;2023-06-01T11:13:29;23.80;83.80
23329;DHT22;11836;51.050;3.716;2023-06-01T11:18:54;23.70;83.40
23329;DHT22;11836;51.050;3.716;2023-06-01T11:21:44;23.70;86.40
23329;DHT22;11836;51.050;3.716;2023-06-01T11:24:12;23.80;88.80
23329;DHT22;11836;51.050;3.716;2023-06-01T11:29:15;24.20;90.10
23329;DHT22;11836;51.050;3.716;2023-06-01T11:34:37;24.40;90.00
23329;DHT22;11836;51.050;3.716;2023-06-01T11:37:05;24.50;90.00
23329;DHT22;11836;51.050;3.716;2023-06-01T11:39:31;24.60;89.80
23329;DHT22;11836;51.050;3.716;2023-06-01T11:42:08;24.70;89.80
23329;DHT22;11836;51.050;3.716;2023-06-01T11:44:36;24.80;89.90
23329;DHT22;11836;51.050;3.716;2023-06-01T11:47:02;24.80;89.70
23329;DHT22;11836;51.050;3.716;2023-06-01T11:49:29;24.90;89.70
23329;DHT22;11836;51.050;3.716;2023-06-01T11:51:55;24.90;89.60
23329;DHT22;11836;51.050;3.716;2023-06-01T11:54:27;24.90;89.40
23329;DHT22;11836;51.050;3.716;2023-06-01T11:56:54;25.00;89.40
23329;DHT22;11836;51.050;3.716;2023-06-01T11:59:21;25.00;89.40
23329;DHT22;11836;51.050;3.716;2023-06-01T12:01:48;25.00;89.40
23329;DHT22;11836;51.050;3.716;2023-06-01T12:04:24;25.10;89.50
23329;DHT22;11836;51.050;3.716;2023-06-01T12:06:51;25.10;90.10
23329;DHT22;11836;51.050;3.716;2023-06-01T12:09:17;25.10;89.30
23329;DHT22;11836;51.050;3.716;2023-06-01T12:11:47;25.10;89.40
23329;DHT22;11836;51.050;3.716;2023-06-01T12:14:15;25.10;89.40
23329;DHT22;11836;51.050;3.716;2023-06-01T12:17:01;25.10;89.40
23329;DHT22;11836;51.050;3.716;2023-06-01T12:19:30;25.20;89.40
23329;DHT22;11836;51.050;3.716;2023-06-01T12:21:58;25.10;89.40
23329;DHT22;11836;51.050;3.716;2023-06-01T12:24:32;25.10;89.40
23329;DHT22;11836;51.050;3.716;2023-06-01T12:27:14;25.20;89.60
23329;DHT22;11836;51.050;3.716;2023-06-01T12:32:07;25.20;89.60
23329;DHT22;11836;51.050;3.716;2023-06-01T12:34:35;25.10;89.60
23329;DHT22;11836;51.050;3.716;2023-06-01T12:37:18;25.20;89.80
23329;DHT22;11836;51.050;3.716;2023-06-01T12:39:51;25.20;89.70
23329;DHT22;11836;51.050;3.716;2023-06-01T12:42:17;25.20;89.90
23329;DHT22;11836;51.050;3.716;2023-06-01T12:44:43;25.20;89.80
23329;DHT22;11836;51.050;3.716;2023-06-01T12:47:09;25.20;89.90
23329;DHT22;11836;51.050;3.716;2023-06-01T12:49:34;25.20;90.00
23329;DHT22;11836;51.050;3.716;2023-06-01T12:52:00;25.20;89.70
23329;DHT22;11836;51.050;3.716;2023-06-01T12:54:27;25.20;89.80
23329;DHT22;11836;51.050;3.716;2023-06-01T12:56:52;25.20;89.90
23329;DHT22;11836;51.050;3.716;2023-06-01T12:59:18;25.20;89.70
23329;DHT22;11836;51.050;3.716;2023-06-01T13:01:44;25.20;89.90
23329;DHT22;11836;51.050;3.716;2023-06-01T13:04:09;25.20;89.90
23329;DHT22;11836;51.050;3.716;2023-06-01T13:06:35;25.20;90.10
23329;DHT22;11836;51.050;3.716;2023-06-01T13:09:02;25.20;90.10
23329;DHT22;11836;51.050;3.716;2023-06-01T13:11:28;25.20;90.00
23329;DHT22;11836;51.050;3.716;2023-06-01T13:13:54;25.20;90.10
23329;DHT22;11836;51.050;3.716;2023-06-01T13:16:33;25.20;90.20
23329;DHT22;11836;51.050;3.716;2023-06-01T13:22:02;25.30;90.20
23329;DHT22;11836;51.050;3.716;2023-06-01T13:24:28;25.20;90.20
23329;DHT22;11836;51.050;3.716;2023-06-01T13:26:55;25.20;90.30
23329;DHT22;11836;51.050;3.716;2023-06-01T13:29:20;25.20;90.30
23329;DHT22;11836;51.050;3.716;2023-06-01T13:31:46;25.30;90.40
23329;DHT22;11836;51.050;3.716;2023-06-01T13:34:12;25.20;90.30
23329;DHT22;11836;51.050;3.716;2023-06-01T13:36:38;25.20;90.40
23329;DHT22;11836;51.050;3.716;2023-06-01T13:39:03;25.20;90.30
23329;DHT22;11836;51.050;3.716;2023-06-01T13:41:29;25.30;90.50
23329;DHT22;11836;51.050;3.716;2023-06-01T13:43:55;25.20;90.10
23329;DHT22;11836;51.050;3.716;2023-06-01T13:46:21;25.20;90.20
23329;DHT22;11836;51.050;3.716;2023-06-01T13:49:06;25.30;90.40
23329;DHT22;11836;51.050;3.716;2023-06-01T13:51:38;25.30;88.90
23329;DHT22;11836;51.050;3.716;2023-06-01T13:54:04;25.20;89.60
23329;DHT22;11836;51.050;3.716;2023-06-01T13:56:30;25.30;87.70
23329;DHT22;11836;51.050;3.716;2023-06-01T13:58:56;25.30;88.50
23329;DHT22;11836;51.050;3.716;2023-06-01T14:01:22;25.20;90.00
23329;DHT22;11836;51.050;3.716;2023-06-01T14:03:48;25.30;90.20
23329;DHT22;11836;51.050;3.716;2023-06-01T14:06:14;25.30;90.20
23329;DHT22;11836;51.050;3.716;2023-06-01T14:08:39;25.30;90.20
23329;DHT22;11836;51.050;3.716;2023-06-01T14:11:05;25.30;90.30
23329;DHT22;11836;51.050;3.716;2023-06-01T14:13:31;25.30;88.30
23329;DHT22;11836;51.050;3.716;2023-06-01T14:15:57;25.30;87.80
23329;DHT22;11836;51.050;3.716;2023-06-01T14:18:23;25.30;89.40
23329;DHT22;11836;51.050;3.716;2023-06-01T14:20:49;25.40;88.30
23329;DHT22;11836;51.050;3.716;2023-06-01T14:23:15;25.30;88.70
23329;DHT22;11836;51.050;3.716;2023-06-01T14:25:41;25.40;90.00
23329;DHT22;11836;51.050;3.716;2023-06-01T14:28:06;25.40;90.30
23329;DHT22;11836;51.050;3.716;2023-06-01T14:30:32;25.40;90.40
23329;DHT22;11836;51.050;3.716;2023-06-01T14:32:59;25.40;89.70
23329;DHT22;11836;51.050;3.716;2023-06-01T14:35:25;25.60;90.00
23329;DHT22;11836;51.050;3.716;2023-06-01T14:37:52;25.40;90.10
23329;DHT22;11836;51.050;3.716;2023-06-01T14:40:18;25.40;89.80
23329;DHT22;11836;51.050;3.716;2023-06-01T14:42:44;25.40;89.50
23329;DHT22;11836;51.050;3.716;2023-06-01T14:45:10;25.50;89.40
23329;DHT22;11836;51.050;3.716;2023-06-01T14:47:39;25.50;90.10
23329;DHT22;11836;51.050;3.716;2023-06-01T14:50:07;25.50;90.10
23329;DHT22;11836;51.050;3.716;2023-06-01T14:52:34;25.50;87.90
23329;DHT22;11836;51.050;3.716;2023-06-01T14:55:01;25.50;88.70
23329;DHT22;11836;51.050;3.716;2023-06-01T14:57:26;25.50;87.20
23329;DHT22;11836;51.050;3.716;2023-06-01T14:59:52;25.50;86.00
23329;DHT22;11836;51.050;3.716;2023-06-01T15:02:18;25.50;85.50
23329;DHT22;11836;51.050;3.716;2023-06-01T15:04:44;25.50;86.80
23329;DHT22;11836;51.050;3.716;2023-06-01T15:07:11;25.50;86.90
23329;DHT22;11836;51.050;3.716;2023-06-01T15:09:52;25.50;86.70
23329;DHT22;11836;51.050;3.716;2023-06-01T15:12:43;25.50;86.00
23329;DHT22;11836;51.050;3.716;2023-06-01T15:15:09;25.50;85.80
23329;DHT22;11836;51.050;3.716;2023-06-01T15:18:13;25.50;85.80
23329;DHT22;11836;51.050;3.716;2023-06-01T15:20:38;25.50;85.70
23329;DHT22;11836;51.050;3.716;2023-06-01T15:23:38;25.50;85.90
23329;DHT22;11836;51.050;3.716;2023-06-01T15:26:02;25.50;86.40
23329;DHT22;11836;51.050;3.716;2023-06-01T15:28:29;25.60;86.50
23329;DHT22;11836;51.050;3.716;2023-06-01T15:30:55;25.60;86.10
23329;DHT22;11836;51.050;3.716;2023-06-01T15:33:20;25.60;86.30
23329;DHT22;11836;51.050;3.716;2023-06-01T15:35:46;25.60;86.40
23329;DHT22;11836;51.050;3.716;2023-06-01T15:38:12;25.60;86.30
23329;DHT22;11836;51.050;3.716;2023-06-01T15:40:41;25.60;85.70
23329;DHT22;11836;51.050;3.716;2023-06-01T15:43:08;25.60;86.70
23329;DHT22;11836;51.050;3.716;2023-06-01T15:48:36;25.30;79.20
23329;DHT22;11836;51.050;3.716;2023-06-01T15:51:07;24.70;81.50
23329;DHT22;11836;51.050;3.716;2023-06-01T15:53:40;24.30;84.20
23329;DHT22;11836;51.050;3.716;2023-06-01T15:56:07;23.80;82.70
23329;DHT22;11836;51.050;3.716;2023-06-01T15:58:34;23.30;84.60
23329;DHT22;11836;51.050;3.716;2023-06-01T16:01:00;23.00;85.80
23329;DHT22;11836;51.050;3.716;2023-06-01T16:03:27;22.90;86.20
23329;DHT22;11836;51.050;3.716;2023-06-01T16:05:55;22.70;86.00
23329;DHT22;11836;51.050;3.716;2023-06-01T16:08:21;22.30;87.90
23329;DHT22;11836;51.050;3.716;2023-06-01T16:10:47;22.10;90.10
23329;DHT22;11836;51.050;3.716;2023-06-01T16:13:12;22.20;89.90
23329;DHT22;11836;51.050;3.716;2023-06-01T16:15:38;22.30;90.50
23329;DHT22;11836;51.050;3.716;2023-06-01T16:18:03;22.30;90.80
23329;DHT22;11836;51.050;3.716;2023-06-01T16:20:36;22.50;90.40
23329;DHT22;11836;51.050;3.716;2023-06-01T16:23:13;22.60;90.10
23329;DHT22;11836;51.050;3.716;2023-06-01T16:25:39;22.70;89.70
23329;DHT22;11836;51.050;3.716;2023-06-01T16:28:04;22.80;88.90
23329;DHT22;11836;51.050;3.716;2023-06-01T16:30:32;22.70;89.40
23329;DHT22;11836;51.050;3.716;2023-06-01T16:32:58;22.60;89.80
23329;DHT22;11836;51.050;3.716;2023-06-01T16:35:24;22.60;90.30
23329;DHT22;11836;51.050;3.716;2023-06-01T16:37:49;22.50;90.00
23329;DHT22;11836;51.050;3.716;2023-06-01T16:40:15;22.50;90.00